地図

経路データ

SID SEASON NUMBER BASIN SUBBASIN NAME ISO_TIME NATURE LAT LON WMO_WIND WMO_PRES WMO_AGENCY TRACK_TYPE DIST2LAND LANDFALL IFLAG USA_AGENCY USA_ATCF_ID USA_LAT USA_LON USA_RECORD USA_STATUS USA_WIND USA_PRES USA_SSHS USA_R34_NE USA_R34_SE USA_R34_SW USA_R34_NW USA_R50_NE USA_R50_SE USA_R50_SW USA_R50_NW USA_R64_NE USA_R64_SE USA_R64_SW USA_R64_NW USA_POCI USA_ROCI USA_RMW USA_EYE TOKYO_LAT TOKYO_LON TOKYO_GRADE TOKYO_WIND TOKYO_PRES TOKYO_R50_DIR TOKYO_R50_LONG TOKYO_R50_SHORT TOKYO_R30_DIR TOKYO_R30_LONG TOKYO_R30_SHORT TOKYO_LAND CMA_LAT CMA_LON CMA_CAT CMA_WIND CMA_PRES HKO_LAT HKO_LON HKO_CAT HKO_WIND HKO_PRES NEWDELHI_LAT NEWDELHI_LON NEWDELHI_GRADE NEWDELHI_WIND NEWDELHI_PRES NEWDELHI_CI NEWDELHI_DP NEWDELHI_POCI REUNION_LAT REUNION_LON REUNION_TYPE REUNION_WIND REUNION_PRES REUNION_TNUM REUNION_CI REUNION_RMW REUNION_R34_NE REUNION_R34_SE REUNION_R34_SW REUNION_R34_NW REUNION_R50_NE REUNION_R50_SE REUNION_R50_SW REUNION_R50_NW REUNION_R64_NE REUNION_R64_SE REUNION_R64_SW REUNION_R64_NW BOM_LAT BOM_LON BOM_TYPE BOM_WIND BOM_PRES BOM_TNUM BOM_CI BOM_RMW BOM_R34_NE BOM_R34_SE BOM_R34_SW BOM_R34_NW BOM_R50_NE BOM_R50_SE BOM_R50_SW BOM_R50_NW BOM_R64_NE BOM_R64_SE BOM_R64_SW BOM_R64_NW BOM_ROCI BOM_POCI BOM_EYE BOM_POS_METHOD BOM_PRES_METHOD NADI_LAT NADI_LON NADI_CAT NADI_WIND NADI_PRES WELLINGTON_LAT WELLINGTON_LON WELLINGTON_WIND WELLINGTON_PRES DS824_LAT DS824_LON DS824_STAGE DS824_WIND DS824_PRES TD9636_LAT TD9636_LON TD9636_STAGE TD9636_WIND TD9636_PRES TD9635_LAT TD9635_LON TD9635_WIND TD9635_PRES TD9635_ROCI NEUMANN_LAT NEUMANN_LON NEUMANN_CLASS NEUMANN_WIND NEUMANN_PRES MLC_LAT MLC_LON MLC_CLASS MLC_WIND MLC_PRES USA_GUST BOM_GUST BOM_GUST_PER REUNION_GUST REUNION_GUST_PER USA_SEAHGT USA_SEARAD_NE USA_SEARAD_SE USA_SEARAD_SW USA_SEARAD_NW STORM_SPEED STORM_DIR
1932269N17303 1932 55 NA NA NOT_NAMED 1932-09-25 06:00:00 TS 16.8000 -56.7000 50 hurdat_atl main 825 791 O_____________ hurdat_atl AL091932 16.8000 -56.7000 TS 50 0 13 275
1932269N17303 1932 55 NA NA NOT_NAMED 1932-09-25 09:00:00 TS 16.8529 -57.3524 main 795 766 P_____________ AL091932 16.8529 -57.3524 TS 57 0 12 275
1932269N17303 1932 55 NA NA NOT_NAMED 1932-09-25 12:00:00 TS 16.9000 -58.0000 65 hurdat_atl main 766 740 O_____________ hurdat_atl AL091932 16.9000 -58.0000 HU 65 1 12 274
1932269N17303 1932 55 NA NA NOT_NAMED 1932-09-25 15:00:00 TS 16.9422 -58.6426 main 740 681 P_____________ AL091932 16.9422 -58.6426 HU 72 1 12 275
1932269N17303 1932 55 NA NA NOT_NAMED 1932-09-25 18:00:00 TS 17.0000 -59.3000 80 hurdat_atl main 681 606 O_____________ hurdat_atl AL091932 17.0000 -59.3000 HU 80 1 13 277
1932269N17303 1932 55 NA NA NOT_NAMED 1932-09-25 21:00:00 TS 17.0925 -60.0075 main 606 531 P_____________ AL091932 17.0925 -60.0075 HU 85 2 14 278
1932269N17303 1932 55 NA NA NOT_NAMED 1932-09-26 00:00:00 TS 17.2000 -60.7000 90 hurdat_atl main 531 466 O_____________ hurdat_atl AL091932 17.2000 -60.7000 HU 90 2 13 279
1932269N17303 1932 55 NA CS NOT_NAMED 1932-09-26 03:00:00 TS 17.2922 -61.3226 main 466 401 P_____________ AL091932 17.2922 -61.3226 HU 97 3 12 280
1932269N17303 1932 55 NA CS NOT_NAMED 1932-09-26 06:00:00 TS 17.4000 -61.9000 105 hurdat_atl main 401 347 O_____________ hurdat_atl AL091932 17.4000 -61.9000 HU 105 3 11 283
1932269N17303 1932 55 NA CS NOT_NAMED 1932-09-26 09:00:00 TS 17.5498 -62.4650 main 337 280 P_____________ AL091932 17.5498 -62.4650 HU 112 3 11 286
1932269N17303 1932 55 NA CS NOT_NAMED 1932-09-26 12:00:00 TS 17.7000 -63.0000 120 948 hurdat_atl main 280 226 O_____________ hurdat_atl AL091932 17.7000 -63.0000 HU 120 948 4 10 285
1932269N17303 1932 55 NA CS NOT_NAMED 1932-09-26 15:00:00 TS 17.8148 -63.5076 main 226 172 P_____________ AL091932 17.8148 -63.5076 HU 122 946 4 10 282
1932269N17303 1932 55 NA CS NOT_NAMED 1932-09-26 18:00:00 TS 17.9000 -64.0000 125 hurdat_atl main 172 121 I_____________ hurdat_atl AL091932 17.9000 -64.0000 HU 125 945 4 9 278
1932269N17303 1932 55 NA CS NOT_NAMED 1932-09-26 21:00:00 TS 17.9497 -64.4852 main 121 67 P_____________ AL091932 17.9497 -64.4852 HU 125 944 4 10 276
1932269N17303 1932 55 NA CS NOT_NAMED 1932-09-27 00:00:00 TS 18.0000 -65.0000 125 943 hurdat_atl main 67 15 O_____________ hurdat_atl AL091932 18.0000 -65.0000 HU 125 943 4 10 279
1932269N17303 1932 55 NA CS NOT_NAMED 1932-09-27 03:00:00 TS 18.1073 -65.5698 main 11 0 P_____________ AL091932 18.1073 -65.5698 HU 112 3 12 280
1932269N17303 1932 55 NA NA NOT_NAMED 1932-09-27 06:00:00 TS 18.2000 -66.2000 100 hurdat_atl main 0 0 O_____________ hurdat_atl AL091932 18.2000 -66.2000 HU 100 3 13 275
1932269N17303 1932 55 NA NA NOT_NAMED 1932-09-27 09:00:00 TS 18.2225 -66.8926 main 0 0 P_____________ AL091932 18.2225 -66.8926 HU 95 2 13 270
1932269N17303 1932 55 NA CS NOT_NAMED 1932-09-27 12:00:00 TS 18.2000 -67.6000 90 hurdat_atl main 38 33 O_____________ hurdat_atl AL091932 18.2000 -67.6000 HU 90 2 13 267
1932269N17303 1932 55 NA CS NOT_NAMED 1932-09-27 15:00:00 TS 18.1570 -68.2425 main 33 11 P_____________ AL091932 18.1570 -68.2425 HU 90 2 12 265
1932269N17303 1932 55 NA CS NOT_NAMED 1932-09-27 18:00:00 TS 18.1000 -68.9000 90 hurdat_atl main 15 15 O_____________ hurdat_atl AL091932 18.1000 -68.9000 HU 90 2 13 265
1932269N17303 1932 55 NA CS NOT_NAMED 1932-09-27 21:00:00 TS 18.0422 -69.6201 main 44 22 P_____________ AL091932 18.0422 -69.6201 HU 90 2 14 266
1932269N17303 1932 55 NA CS NOT_NAMED 1932-09-28 00:00:00 TS 18.0000 -70.4000 90 hurdat_atl main 22 0 O_____________ hurdat_atl AL091932 18.0000 -70.4000 HU 90 2 15 268
1932269N17303 1932 55 NA NA NOT_NAMED 1932-09-28 03:00:00 TS 17.9924 -71.2424 main 0 0 P_____________ AL091932 17.9924 -71.2424 HU 82 1 16 270
1932269N17303 1932 55 NA CS NOT_NAMED 1932-09-28 06:00:00 TS 18.0000 -72.1000 75 hurdat_atl main 22 11 O_____________ hurdat_atl AL091932 18.0000 -72.1000 HU 75 1 16 271
1932269N17303 1932 55 NA CS NOT_NAMED 1932-09-28 09:00:00 TS 18.0074 -72.9374 main 15 10 P_____________ AL091932 18.0074 -72.9374 HU 67 1 15 270
1932269N17303 1932 55 NA CS NOT_NAMED 1932-09-28 12:00:00 TS 18.0000 -73.7000 60 hurdat_atl main 10 0 O_____________ hurdat_atl AL091932 18.0000 -73.7000 TS 60 0 13 268
1932269N17303 1932 55 NA CS NOT_NAMED 1932-09-28 15:00:00 TS 17.9571 -74.3450 main 30 30 P_____________ AL091932 17.9571 -74.3450 TS 55 0 11 265
1932269N17303 1932 55 NA CS NOT_NAMED 1932-09-28 18:00:00 TS 17.9000 -74.9000 50 hurdat_atl main 69 69 O_____________ hurdat_atl AL091932 17.9000 -74.9000 TS 50 0 10 264
1932269N17303 1932 55 NA CS NOT_NAMED 1932-09-28 21:00:00 TS 17.8499 -75.4300 main 85 33 P_____________ AL091932 17.8499 -75.4300 TS 47 0 10 264
1932269N17303 1932 55 NA CS NOT_NAMED 1932-09-29 00:00:00 TS 17.8000 -75.9000 45 hurdat_atl main 33 11 O_____________ hurdat_atl AL091932 17.8000 -75.9000 TS 45 0 8 263
1932269N17303 1932 55 NA CS NOT_NAMED 1932-09-29 03:00:00 TS 17.7497 -76.2999 main 22 22 P_____________ AL091932 17.7497 -76.2999 TS 42 0 8 263
1932269N17303 1932 55 NA CS NOT_NAMED 1932-09-29 06:00:00 TS 17.7000 -76.7000 40 hurdat_atl main 22 10 O_____________ hurdat_atl AL091932 17.7000 -76.7000 TS 40 0 8 263
1932269N17303 1932 55 NA CS NOT_NAMED 1932-09-29 09:00:00 TS 17.6499 -77.1775 main 11 11 P_____________ AL091932 17.6499 -77.1775 TS 40 0 10 264
1932269N17303 1932 55 NA CS NOT_NAMED 1932-09-29 12:00:00 TS 17.6000 -77.7000 40 hurdat_atl main 33 33 O_____________ hurdat_atl AL091932 17.6000 -77.7000 TS 40 0 10 264
1932269N17303 1932 55 NA CS NOT_NAMED 1932-09-29 15:00:00 TS 17.5499 -78.2425 main 69 69 P_____________ AL091932 17.5499 -78.2425 TS 40 0 11 265
1932269N17303 1932 55 NA CS NOT_NAMED 1932-09-29 18:00:00 TS 17.5000 -78.8000 40 hurdat_atl main 89 89 O_____________ hurdat_atl AL091932 17.5000 -78.8000 TS 40 0 11 265
1932269N17303 1932 55 NA CS NOT_NAMED 1932-09-29 21:00:00 TS 17.4498 -79.3425 main 130 130 P_____________ AL091932 17.4498 -79.3425 TS 40 0 11 265
1932269N17303 1932 55 NA CS NOT_NAMED 1932-09-30 00:00:00 TS 17.4000 -79.9000 40 hurdat_atl main 182 182 O_____________ hurdat_atl AL091932 17.4000 -79.9000 TS 40 0 11 265
1932269N17303 1932 55 NA CS NOT_NAMED 1932-09-30 03:00:00 TS 17.3499 -80.4925 main 244 244 P_____________ AL091932 17.3499 -80.4925 TS 40 0 12 265
1932269N17303 1932 55 NA CS NOT_NAMED 1932-09-30 06:00:00 TS 17.3000 -81.1000 40 hurdat_atl main 303 288 O_____________ hurdat_atl AL091932 17.3000 -81.1000 TS 40 0 12 265
1932269N17303 1932 55 NA CS NOT_NAMED 1932-09-30 09:00:00 TS 17.2498 -81.6925 main 279 242 P_____________ AL091932 17.2498 -81.6925 TS 40 0 12 265
1932269N17303 1932 55 NA CS NOT_NAMED 1932-09-30 12:00:00 TS 17.2000 -82.3000 40 hurdat_atl main 242 214 O_____________ hurdat_atl AL091932 17.2000 -82.3000 TS 40 0 12 265
1932269N17303 1932 55 NA CS NOT_NAMED 1932-09-30 15:00:00 TS 17.1499 -82.9425 main 204 163 P_____________ AL091932 17.1499 -82.9425 TS 40 0 12 265
1932269N17303 1932 55 NA CS NOT_NAMED 1932-09-30 18:00:00 TS 17.1000 -83.6000 40 hurdat_atl main 163 144 O_____________ hurdat_atl AL091932 17.1000 -83.6000 TS 40 0 13 265
1932269N17303 1932 55 NA CS NOT_NAMED 1932-09-30 21:00:00 TS 17.0499 -84.2575 main 130 123 P_____________ AL091932 17.0499 -84.2575 TS 40 0 12 265
1932269N17303 1932 55 NA CS NOT_NAMED 1932-10-01 00:00:00 TS 17.0000 -84.9000 40 hurdat_atl main 123 123 O_____________ hurdat_atl AL091932 17.0000 -84.9000 TS 40 0 12 265
1932269N17303 1932 55 NA CS NOT_NAMED 1932-10-01 03:00:00 TS 16.9498 -85.5150 main 111 111 P_____________ AL091932 16.9498 -85.5150 TS 40 0 12 265
1932269N17303 1932 55 NA CS NOT_NAMED 1932-10-01 06:00:00 TS 16.9000 -86.1000 40 hurdat_atl main 113 113 O_____________ hurdat_atl AL091932 16.9000 -86.1000 TS 40 0 11 265
1932269N17303 1932 55 NA CS NOT_NAMED 1932-10-01 09:00:00 TS 16.8498 -86.6575 main 113 108 P_____________ AL091932 16.8498 -86.6575 TS 40 0 11 265
1932269N17303 1932 55 NA CS NOT_NAMED 1932-10-01 12:00:00 TS 16.8000 -87.2000 40 1003 hurdat_atl main 108 57 O_____________ hurdat_atl AL091932 16.8000 -87.2000 TS 40 1003 0 11 265
1932269N17303 1932 55 NA CS NOT_NAMED 1932-10-01 15:00:00 TS 16.7574 -87.7499 main 57 10 P_____________ AL091932 16.7574 -87.7499 TS 40 0 11 265
1932269N17303 1932 55 NA CS NOT_NAMED 1932-10-01 18:00:00 TS 16.7000 -88.3000 40 hurdat_atl main 10 0 O_____________ hurdat_atl AL091932 16.7000 -88.3000 TS 40 0 11 262
1932269N17303 1932 55 NA NA NOT_NAMED 1932-10-01 21:00:00 TS 16.6074 -88.8500 main 0 0 P_____________ AL091932 16.6074 -88.8500 TS 37 0 11 259
1932269N17303 1932 55 NA NA NOT_NAMED 1932-10-02 00:00:00 TS 16.5000 -89.4000 35 hurdat_atl main 0 0 O_____________ hurdat_atl AL091932 16.5000 -89.4000 TS 35 0 11 259
1932269N17303 1932 55 NA NA NOT_NAMED 1932-10-02 03:00:00 TS 16.4074 -89.9574 main 0 0 P_____________ AL091932 16.4074 -89.9574 TS 32 -1 11 259
1932269N17303 1932 55 NA NA NOT_NAMED 1932-10-02 06:00:00 TS 16.3000 -90.5000 30 hurdat_atl main 0 0 O_____________ hurdat_atl AL091932 16.3000 -90.5000 TD 30 -1 10 256
1932269N17303 1932 55 NA NA NOT_NAMED 1932-10-02 09:00:00 TS 16.1573 -91.0075 main 0 0 P_____________ AL091932 16.1573 -91.0075 TD 30 -1 10 253
1932269N17303 1932 55 NA NA NOT_NAMED 1932-10-02 12:00:00 TS 16.0000 -91.5000 30 hurdat_atl main 0 0 O_____________ hurdat_atl AL091932 16.0000 -91.5000 TD 30 -1 10 252
1932269N17303 1932 55 NA NA NOT_NAMED 1932-10-02 15:00:00 TS 15.8478 -91.9976 main 0 0 P_____________ AL091932 15.8478 -91.9976 TD 27 -1 10 253
1932269N17303 1932 55 NA NA NOT_NAMED 1932-10-02 18:00:00 TS 15.7000 -92.5000 25 hurdat_atl main 0 O_____________ hurdat_atl AL091932 15.7000 -92.5000 TD 25 -1 10 253

IBTrACS Databaseについて

本データベースは、米国NOAAが公開する1842年以降の世界の熱帯低気圧のベストトラックデータアーカイブInternational Best Track Archive for Climate Stewardship (IBTrACS)を、ウェブで閲覧しやすい形式に変換したものです。

最終更新日:2021-12-08